createdAt,value
2022-11-05T00:11:25.066Z,6.9
2022-11-05T00:25:19.469Z,6.3
2022-11-05T00:39:17.893Z,6.3
2022-11-05T01:07:15.980Z,5.6
2022-11-05T01:21:12.355Z,5.2
2022-11-05T01:35:10.284Z,5.1
2022-11-05T01:49:07.588Z,5
2022-11-05T02:03:04.547Z,4.9
2022-11-05T02:17:03.454Z,5.1
2022-11-05T02:31:00.894Z,5
2022-11-05T02:44:57.227Z,4.7
2022-11-05T02:58:55.037Z,4.5
2022-11-05T03:12:52.971Z,4.4
2022-11-05T03:26:48.363Z,4.3
2022-11-05T03:40:45.797Z,4.1
2022-11-05T03:54:45.679Z,4.1
2022-11-05T04:08:40.512Z,4
2022-11-05T04:22:36.022Z,4.1
2022-11-05T04:36:35.309Z,3.9
2022-11-05T05:04:39.015Z,3.5
2022-11-05T05:18:36.565Z,3.3
2022-11-05T05:32:32.203Z,3.4
2022-11-05T05:46:29.232Z,3.2
2022-11-05T06:00:28.800Z,3.2
2022-11-05T06:14:25.659Z,3.1
2022-11-05T06:28:21.155Z,3.3
2022-11-05T06:42:18.631Z,3.4
2022-11-05T06:56:16.323Z,3.3
2022-11-05T07:10:14.096Z,3.4
2022-11-05T07:24:19.254Z,3.3
2022-11-05T07:38:14.707Z,3.6
2022-11-05T07:52:16.169Z,4.5
2022-11-05T08:06:16.047Z,5.9
2022-11-05T08:20:19.048Z,7.5
2022-11-05T08:34:24.554Z,9.3
2022-11-05T08:48:16.805Z,8.3
2022-11-05T09:02:16.323Z,7.9
2022-11-05T09:16:17.344Z,8.3
2022-11-05T09:30:13.938Z,8.5
2022-11-05T09:44:09.857Z,8.5
2022-11-05T09:58:09.990Z,9.5
2022-11-05T10:12:11.655Z,10
2022-11-05T10:26:08.358Z,10.2
2022-11-05T10:40:08.206Z,9.5
2022-11-05T10:54:07.994Z,9.8
2022-11-05T11:08:09.325Z,10.1
2022-11-05T11:22:08.355Z,11
2022-11-05T11:36:07.415Z,11.4
2022-11-05T11:50:09.969Z,11.5
2022-11-05T12:04:10.015Z,12.6
2022-11-05T12:18:07.942Z,12.7
2022-11-05T12:32:06.241Z,12.5
2022-11-05T12:46:06.182Z,12.4
2022-11-05T13:00:05.937Z,12.6
2022-11-05T13:14:06.255Z,12.9
2022-11-05T13:28:05.225Z,13
2022-11-05T13:42:03.158Z,13
2022-11-05T13:56:04.507Z,12.9
2022-11-05T14:10:03.523Z,13.3
2022-11-05T14:24:00.653Z,13.2
2022-11-05T14:37:57.960Z,12.4
2022-11-05T14:51:56.749Z,11.9
2022-11-05T15:05:54.391Z,11.9
2022-11-05T15:19:51.988Z,11.3
2022-11-05T15:33:50.781Z,10.9
2022-11-05T15:47:49.763Z,10.6
2022-11-05T16:01:48.184Z,10.4
2022-11-05T16:15:46.635Z,10.2
2022-11-05T16:29:45.120Z,10
2022-11-05T16:43:43.365Z,9.8
2022-11-05T16:57:41.960Z,9.5
2022-11-05T17:11:39.779Z,9.4
2022-11-05T17:25:38.790Z,9.3
2022-11-05T17:39:37.883Z,9.3
2022-11-05T17:53:35.996Z,9.3
2022-11-05T18:07:34.485Z,9.5
2022-11-05T18:21:32.814Z,9.3
2022-11-05T18:35:32.037Z,9.4
2022-11-05T18:49:30.407Z,9.5
2022-11-05T19:03:28.827Z,9.4
2022-11-05T19:17:27.123Z,9.5
2022-11-05T19:31:26.208Z,9.5
2022-11-05T19:59:24.501Z,9.6
2022-11-05T20:13:21.918Z,9.6
2022-11-05T20:27:20.349Z,9.4
2022-11-05T20:41:18.423Z,9.4
2022-11-05T20:55:16.060Z,9.2
2022-11-05T21:09:13.247Z,9.3
2022-11-05T21:23:13.284Z,9.4
2022-11-05T21:37:09.820Z,9.1
2022-11-05T21:51:08.195Z,9.2
2022-11-05T22:05:06.415Z,9.1
2022-11-05T22:19:05.300Z,8.9
2022-11-05T22:33:04.671Z,9
2022-11-05T22:47:02.692Z,9
2022-11-05T23:01:01.950Z,8.9
2022-11-05T23:15:00.598Z,8.5
2022-11-05T23:28:59.944Z,9.3
2022-11-05T23:42:58.928Z,8.9
2022-11-05T23:56:58.663Z,9.6
